Time;durP1;ratioP1;P1;durP2;ratioP2;P2;SDS_P1;SDS_P2;PMS_P1;PMS_P2;Temp;Humidity;BMP_temperature;BMP_pressure;BME280_temperature;BME280_humidity;BME280_pressure;Samples;Min_cycle;Max_cycle;Signal;HPM_P1;HPM_P2
2022/07/25 00:00:11;;;;;;;21.88;14.10;;;;;;;23.04;63.68;100939.56;5112657;28;20568;-58
2022/07/25 00:02:37;;;;;;;22.08;15.02;;;;;;;23.02;63.07;100937.09;5114531;28;20159;-59
2022/07/25 00:05:03;;;;;;;21.50;14.43;;;;;;;23.01;63.36;100941.13;5113572;28;20063;-61
2022/07/25 00:07:28;;;;;;;22.17;14.90;;;;;;;22.98;63.46;100941.09;5114129;28;20044;-59
2022/07/25 00:09:54;;;;;;;22.70;15.57;;;;;;;22.93;63.65;100928.16;5113863;28;20031;-59
2022/07/25 00:12:20;;;;;;;22.13;14.40;;;;;;;22.89;63.90;100928.13;5113780;28;20035;-59
2022/07/25 00:14:45;;;;;;;23.30;16.25;;;;;;;22.78;64.33;100924.41;5113718;28;20444;-59
2022/07/25 00:17:11;;;;;;;22.40;15.55;;;;;;;22.75;64.24;100923.19;5113879;28;20301;-58
2022/07/25 00:19:37;;;;;;;24.17;15.98;;;;;;;22.77;64.18;100919.97;5113600;28;20030;-59
2022/07/25 00:22:02;;;;;;;24.30;16.05;;;;;;;22.70;64.47;100914.25;5113506;28;20054;-59
2022/07/25 00:24:28;;;;;;;22.75;15.55;;;;;;;22.66;64.23;100922.69;5113389;28;20070;-59
2022/07/25 00:26:53;;;;;;;23.58;16.60;;;;;;;22.63;64.51;100917.03;5113573;28;20031;-59
2022/07/25 00:29:19;;;;;;;22.90;16.35;;;;;;;22.65;64.12;100914.63;5112359;28;20099;-58
2022/07/25 00:31:44;;;;;;;24.27;17.23;;;;;;;22.56;64.90;100909.28;5113609;28;20023;-58
2022/07/25 00:34:09;;;;;;;24.15;16.95;;;;;;;22.48;65.36;100911.25;5113036;28;20027;-59
2022/07/25 00:36:35;;;;;;;23.75;17.40;;;;;;;22.46;65.37;100902.38;5113143;28;20481;-59
2022/07/25 00:39:00;;;;;;;24.05;17.70;;;;;;;22.35;65.76;100896.56;5113257;28;20032;-59
2022/07/25 00:41:26;;;;;;;24.20;17.25;;;;;;;22.30;66.04;100896.94;5113274;28;20055;-58
2022/07/25 00:43:51;;;;;;;25.95;18.35;;;;;;;22.29;65.80;100893.28;5111952;28;20023;-59
2022/07/25 00:46:17;;;;;;;23.77;17.63;;;;;;;22.25;66.18;100894.44;5113675;28;20023;-59
2022/07/25 00:48:43;;;;;;;24.52;17.70;;;;;;;22.20;66.34;100895.59;5113721;28;20027;-58
2022/07/25 00:51:09;;;;;;;26.15;18.02;;;;;;;22.20;65.84;100887.16;5111908;28;20174;-59
2022/07/25 00:53:35;;;;;;;26.40;18.10;;;;;;;22.15;66.52;100878.25;5113234;28;20079;-59
2022/07/25 00:56:01;;;;;;;25.98;17.90;;;;;;;22.02;66.60;100875.69;5112963;28;20031;-59
2022/07/25 00:58:27;;;;;;;25.55;17.75;;;;;;;22.01;66.71;100884.53;5112671;28;20051;-59
2022/07/25 01:00:52;;;;;;;28.40;17.80;;;;;;;22.02;66.53;100881.31;5112922;28;20098;-59
2022/07/25 01:03:17;;;;;;;25.20;17.05;;;;;;;21.96;67.24;100878.03;5112707;28;20024;-59
2022/07/25 01:05:43;;;;;;;24.17;17.23;;;;;;;21.92;67.19;100868.72;5112238;28;20103;-59
2022/07/25 01:08:08;;;;;;;24.23;17.23;;;;;;;21.94;67.05;100871.97;5112732;28;20479;-59
2022/07/25 01:10:35;;;;;;;24.95;18.15;;;;;;;21.92;66.88;100871.53;5112567;28;20629;-59
2022/07/25 01:13:00;;;;;;;25.30;18.27;;;;;;;21.92;66.63;100867.91;5112548;28;20031;-59
2022/07/25 01:15:26;;;;;;;25.77;18.63;;;;;;;21.91;66.39;100858.69;5112518;28;20023;-59
2022/07/25 01:17:52;;;;;;;24.90;18.45;;;;;;;21.89;66.44;100851.78;5112238;28;20441;-59
2022/07/25 01:20:22;;;;;;;25.83;17.80;;;;;;;21.89;66.30;100854.59;5112048;28;20028;-59
2022/07/25 01:22:48;;;;;;;27.42;19.02;;;;;;;21.83;66.44;100845.69;5112374;28;20480;-59
2022/07/25 01:25:14;;;;;;;24.30;18.08;;;;;;;21.81;66.50;100848.09;5112117;28;20024;-59
2022/07/25 01:27:40;;;;;;;25.40;18.27;;;;;;;21.82;66.43;100846.91;5110937;28;20049;-59
2022/07/25 01:30:08;;;;;;;23.98;17.73;;;;;;;21.79;66.22;100842.03;5112501;28;20027;-59
2022/07/25 01:32:34;;;;;;;26.05;18.52;;;;;;;21.72;66.44;100839.94;5112079;28;20095;-60
2022/07/25 01:35:00;;;;;;;25.50;17.15;;;;;;;21.75;66.11;100833.53;5112090;28;20035;-59
2022/07/25 01:37:25;;;;;;;23.52;17.00;;;;;;;21.68;66.58;100839.06;5111800;28;20206;-59
2022/07/25 01:39:50;;;;;;;24.70;17.10;;;;;;;21.68;66.37;100830.63;5111733;28;20058;-59
2022/07/25 01:42:16;;;;;;;24.67;16.85;;;;;;;21.69;65.98;100828.63;5111196;28;20042;-59
2022/07/25 01:44:41;;;;;;;26.63;17.70;;;;;;;21.61;66.55;100828.53;5110216;28;20442;-59
2022/07/25 01:47:06;;;;;;;23.90;16.77;;;;;;;21.56;66.13;100823.19;5111850;27;20034;-58
2022/07/25 01:49:32;;;;;;;24.60;17.17;;;;;;;21.58;65.94;100818.03;5112008;28;20064;-58
2022/07/25 01:51:57;;;;;;;23.42;15.90;;;;;;;21.60;65.89;100818.47;5111743;28;20065;-58
2022/07/25 01:54:22;;;;;;;24.30;16.00;;;;;;;21.60;65.72;100812.00;5111787;28;20063;-59
2022/07/25 01:56:48;;;;;;;22.75;15.40;;;;;;;21.58;65.81;100806.78;5110300;28;20023;-59
2022/07/25 01:59:13;;;;;;;23.25;15.45;;;;;;;21.51;66.14;100809.47;5111581;28;20024;-58
2022/07/25 02:01:39;;;;;;;23.27;16.30;;;;;;;21.52;65.37;100805.47;5111676;27;20107;-59
2022/07/25 02:04:04;;;;;;;23.08;15.65;;;;;;;21.49;65.43;100794.97;5111725;28;20031;-58
2022/07/25 02:06:30;;;;;;;22.70;15.88;;;;;;;21.54;65.46;100808.69;5111674;28;20481;-58
2022/07/25 02:08:55;;;;;;;23.17;15.43;;;;;;;21.44;65.37;100790.50;5110043;28;20493;-59
2022/07/25 02:11:20;;;;;;;23.08;14.90;;;;;;;21.50;65.36;100799.41;5110458;28;20100;-58
2022/07/25 02:13:46;;;;;;;22.38;14.93;;;;;;;21.48;65.09;100785.72;5112009;28;20061;-59
2022/07/25 02:16:12;;;;;;;22.05;15.10;;;;;;;21.47;65.23;100784.13;5112348;28;20063;-58
2022/07/25 02:18:38;;;;;;;21.88;15.02;;;;;;;21.45;65.33;100789.31;5111502;28;20055;-59
2022/07/25 02:21:08;;;;;;;22.85;15.18;;;;;;;21.40;65.28;100781.19;5111131;27;20032;-58
2022/07/25 02:23:34;;;;;;;22.38;14.55;;;;;;;21.38;65.13;100779.94;5111587;28;20125;-58
2022/07/25 02:26:04;;;;;;;21.95;14.48;;;;;;;21.36;65.12;100788.78;5111350;28;20059;-59
2022/07/25 02:28:29;;;;;;;21.48;14.57;;;;;;;21.36;65.15;100785.97;5111323;28;20042;-59
2022/07/25 02:30:55;;;;;;;23.02;16.33;;;;;;;21.31;65.15;100780.66;5111247;28;20028;-59
2022/07/25 02:33:20;;;;;;;22.73;15.40;;;;;;;21.27;65.36;100783.44;5110985;28;20034;-59
2022/07/25 02:35:45;;;;;;;22.92;14.32;;;;;;;21.33;65.15;100778.28;5110947;28;20020;-58
2022/07/25 02:38:18;;;;;;;21.58;14.20;;;;;;;21.25;65.28;100783.03;5111025;28;20020;-59
2022/07/25 02:40:44;;;;;;;22.67;14.65;;;;;;;21.27;64.97;100775.00;5111102;28;20048;-59
2022/07/25 02:43:09;;;;;;;21.88;15.02;;;;;;;21.19;65.55;100771.28;5111072;28;20028;-59
2022/07/25 02:45:35;;;;;;;22.13;15.18;;;;;;;21.17;65.29;100770.03;5111564;28;20122;-58
2022/07/25 02:48:00;;;;;;;21.27;14.25;;;;;;;21.13;65.47;100769.19;5110916;28;20461;-58
2022/07/25 02:50:25;;;;;;;21.67;14.95;;;;;;;21.10;65.71;100761.50;5111238;28;20484;-58
2022/07/25 02:52:50;;;;;;;21.90;15.18;;;;;;;21.05;65.77;100751.41;5110825;28;20040;-58
2022/07/25 02:55:16;;;;;;;22.83;14.48;;;;;;;21.06;65.65;100749.41;5111225;28;20035;-58
2022/07/25 02:57:41;;;;;;;21.67;14.57;;;;;;;21.02;66.04;100754.97;5110855;28;20035;-58
2022/07/25 03:00:07;;;;;;;20.88;14.65;;;;;;;20.97;65.82;100758.91;5110805;28;20043;-59
2022/07/25 03:02:33;;;;;;;23.73;14.35;;;;;;;20.93;66.09;100758.06;5110624;28;20165;-58
2022/07/25 03:04:58;;;;;;;23.92;14.15;;;;;;;20.93;65.76;100749.63;5110575;28;20058;-59
2022/07/25 03:07:23;;;;;;;22.23;14.55;;;;;;;20.86;66.21;100755.16;5110778;28;20023;-58
2022/07/25 03:09:49;;;;;;;22.23;14.95;;;;;;;20.84;66.02;100744.28;5110733;28;20351;-58
2022/07/25 03:12:14;;;;;;;22.70;15.27;;;;;;;20.82;66.15;100755.09;5111010;28;20095;-58
2022/07/25 03:14:39;;;;;;;22.35;14.23;;;;;;;20.81;66.14;100747.03;5109332;28;20030;-58
2022/07/25 03:17:05;;;;;;;21.95;14.60;;;;;;;20.79;66.17;100738.16;5110436;28;20156;-58
2022/07/25 03:19:30;;;;;;;21.75;15.05;;;;;;;20.76;66.03;100722.06;5110451;28;20085;-58
2022/07/25 03:21:55;;;;;;;21.40;14.05;;;;;;;20.80;65.78;100729.38;5110478;28;20035;-58
2022/07/25 03:24:20;;;;;;;22.30;14.40;;;;;;;20.77;65.93;100720.88;5110619;28;20091;-58
2022/07/25 03:26:46;;;;;;;21.33;14.77;;;;;;;20.73;66.18;100718.81;5110661;28;20050;-58
2022/07/25 03:29:11;;;;;;;22.42;15.23;;;;;;;20.76;65.57;100722.88;5110630;28;20465;-58
2022/07/25 03:31:36;;;;;;;22.52;14.05;;;;;;;20.79;65.46;100724.94;5108586;28;20519;-58
2022/07/25 03:34:02;;;;;;;21.20;13.77;;;;;;;20.76;65.75;100731.31;5110495;28;20023;-58
2022/07/25 03:36:27;;;;;;;21.85;14.20;;;;;;;20.75;65.42;100726.06;5110034;28;20425;-58
2022/07/25 03:38:55;;;;;;;21.13;13.70;;;;;;;20.72;65.59;100725.59;5110339;28;20028;-58
2022/07/25 03:41:20;;;;;;;21.90;15.10;;;;;;;20.67;65.76;100725.13;5110453;28;20489;-58
2022/07/25 03:43:46;;;;;;;23.08;14.52;;;;;;;20.67;65.83;100730.75;5108488;28;20049;-58
2022/07/25 03:46:11;;;;;;;21.70;14.90;;;;;;;20.68;65.61;100724.75;5110137;28;20065;-58
2022/07/25 03:48:37;;;;;;;21.05;14.85;;;;;;;20.71;65.41;100718.34;5110209;28;20494;-58
2022/07/25 03:51:02;;;;;;;22.23;14.65;;;;;;;20.67;65.41;100723.13;5109999;28;20103;-58
2022/07/25 03:53:28;;;;;;;21.63;14.05;;;;;;;20.70;65.42;100724.38;5110271;28;20356;-58
2022/07/25 03:55:53;;;;;;;21.55;14.15;;;;;;;20.67;65.54;100719.50;5110285;28;20096;-58
2022/07/25 03:58:18;;;;;;;22.38;15.60;;;;;;;20.65;65.68;100710.63;5110204;28;20019;-58
2022/07/25 04:00:43;;;;;;;21.42;14.85;;;;;;;20.68;65.21;100709.88;5110212;28;20086;-58
2022/07/25 04:03:09;;;;;;;23.67;15.38;;;;;;;20.70;65.03;100718.75;5110131;28;20020;-58
2022/07/25 04:05:34;;;;;;;21.90;15.20;;;;;;;20.66;65.29;100715.06;5113087;28;20027;-59
2022/07/25 04:07:59;;;;;;;22.17;14.82;;;;;;;20.68;65.33;100713.53;5114113;28;20119;-59
2022/07/25 04:10:25;;;;;;;22.73;15.32;;;;;;;20.64;65.60;100701.41;5113908;28;20027;-59
2022/07/25 04:12:50;;;;;;;21.52;14.90;;;;;;;20.63;65.55;100708.19;5113918;28;20023;-59
2022/07/25 04:15:16;;;;;;;21.98;15.20;;;;;;;20.65;65.63;100707.81;5114160;28;20036;-59
2022/07/25 04:17:41;;;;;;;23.90;15.32;;;;;;;20.70;65.27;100708.31;5113958;28;20039;-59
2022/07/25 04:20:07;;;;;;;21.85;15.05;;;;;;;20.68;65.37;100707.91;5113921;28;20077;-59
2022/07/25 04:22:33;;;;;;;21.17;14.52;;;;;;;20.70;65.59;100710.31;5113415;28;20028;-58
2022/07/25 04:24:58;;;;;;;22.83;14.80;;;;;;;20.73;65.26;100709.56;5113626;28;20028;-58
2022/07/25 04:27:23;;;;;;;21.98;14.73;;;;;;;20.77;64.92;100701.22;5113533;28;20034;-58
2022/07/25 04:29:49;;;;;;;22.17;15.05;;;;;;;20.83;64.75;100708.13;5113533;28;20059;-62
2022/07/25 04:32:15;;;;;;;21.73;14.57;;;;;;;20.85;64.60;100700.91;5113839;28;20058;-58
2022/07/25 04:34:42;;;;;;;21.00;14.32;;;;;;;20.88;64.35;100697.34;5114025;28;20038;-58
2022/07/25 04:37:08;;;;;;;22.90;14.60;;;;;;;20.94;64.55;100700.66;5113362;28;20464;-58
2022/07/25 04:39:33;;;;;;;21.70;14.48;;;;;;;20.85;64.48;100677.63;5113222;28;20031;-58
2022/07/25 04:41:58;;;;;;;22.67;14.95;;;;;;;20.94;64.46;100689.41;5113533;28;20340;-58
2022/07/25 04:44:23;;;;;;;21.60;14.00;;;;;;;20.97;64.60;100694.25;5113072;28;20378;-58
2022/07/25 04:46:49;;;;;;;24.23;14.57;;;;;;;21.06;63.83;100718.47;5113030;28;20019;-59
2022/07/25 04:49:14;;;;;;;20.70;13.82;;;;;;;21.08;64.24;100710.44;5113301;28;20106;-58
2022/07/25 04:51:39;;;;;;;21.42;14.80;;;;;;;21.13;63.64;100713.72;5113301;28;20118;-58
2022/07/25 04:54:05;;;;;;;23.58;15.27;;;;;;;21.17;63.76;100705.34;5113077;28;20031;-58
2022/07/25 04:56:30;;;;;;;22.83;15.23;;;;;;;21.20;63.96;100704.56;5113365;28;20168;-58
2022/07/25 04:58:56;;;;;;;23.95;15.43;;;;;;;21.27;63.34;100693.41;5113031;28;20024;-58
2022/07/25 05:01:21;;;;;;;21.90;14.07;;;;;;;21.34;63.87;100692.69;5112934;27;20031;-58
2022/07/25 05:03:46;;;;;;;22.30;14.30;;;;;;;21.38;63.50;100687.94;5113011;28;20467;-58
2022/07/25 05:06:12;;;;;;;22.38;15.13;;;;;;;21.36;63.43;100687.50;5112855;28;20035;-58
2022/07/25 05:08:37;;;;;;;22.60;15.23;;;;;;;21.34;63.81;100698.31;5112751;28;20023;-59
2022/07/25 05:11:02;;;;;;;21.38;14.95;;;;;;;21.37;63.90;100700.38;5112659;28;20504;-59
2022/07/25 05:13:28;;;;;;;21.92;15.55;;;;;;;21.37;63.89;100691.94;5112543;27;20027;-58
2022/07/25 05:15:53;;;;;;;23.38;15.38;;;;;;;21.45;63.63;100688.00;5112374;28;20059;-58
2022/07/25 05:18:18;;;;;;;22.55;15.85;;;;;;;21.48;63.79;100692.03;5112589;28;20147;-59
2022/07/25 05:20:44;;;;;;;23.23;15.82;;;;;;;21.54;63.84;100693.31;5112319;28;20055;-59
2022/07/25 05:23:09;;;;;;;25.27;16.02;;;;;;;21.58;63.54;100691.38;5112584;28;20038;-59
2022/07/25 05:25:34;;;;;;;21.83;15.00;;;;;;;21.71;63.06;100700.34;5112481;28;20024;-59
2022/07/25 05:28:01;;;;;;;22.17;15.40;;;;;;;21.79;62.66;100698.44;5110855;28;20023;-59
2022/07/25 05:30:27;;;;;;;22.08;15.13;;;;;;;21.87;62.58;100697.31;5112970;28;20106;-59
2022/07/25 05:32:52;;;;;;;22.48;15.18;;;;;;;21.92;62.57;100702.56;5110698;28;20183;-59
2022/07/25 05:35:17;;;;;;;23.08;14.90;;;;;;;22.00;62.62;100694.19;5112374;28;20038;-58
2022/07/25 05:37:43;;;;;;;21.25;14.93;;;;;;;22.04;61.91;100697.84;5112152;28;20046;-58
2022/07/25 05:40:08;;;;;;;23.55;16.20;;;;;;;22.08;62.35;100699.50;5111890;28;20490;-58
2022/07/25 05:42:34;;;;;;;22.63;15.50;;;;;;;22.15;62.12;100692.31;5112225;28;20030;-58
2022/07/25 05:45:00;;;;;;;22.05;14.60;;;;;;;22.16;62.04;100686.28;5110826;28;20053;-58
2022/07/25 05:47:25;;;;;;;23.58;14.60;;;;;;;22.23;61.15;100685.53;5111992;28;20369;-58
2022/07/25 05:49:51;;;;;;;22.63;14.38;;;;;;;22.32;61.10;100705.75;5112073;28;20107;-59
2022/07/25 05:52:16;;;;;;;21.40;12.93;;;;;;;22.37;60.63;100704.56;5110473;28;20238;-60
2022/07/25 05:54:41;;;;;;;22.55;13.02;;;;;;;22.47;59.08;100708.69;5111562;28;20027;-60
2022/07/25 05:57:07;;;;;;;20.85;13.10;;;;;;;22.48;58.63;100705.50;5110380;28;20024;-59
2022/07/25 05:59:32;;;;;;;21.25;13.07;;;;;;;22.44;59.17;100702.63;5110302;28;20027;-59
2022/07/25 06:02:00;;;;;;;20.75;13.05;;;;;;;22.41;59.25;100699.78;5112101;28;20464;-60
2022/07/25 06:04:25;;;;;;;21.27;13.38;;;;;;;22.48;58.98;100693.38;5112071;28;20024;-59
2022/07/25 06:06:51;;;;;;;21.38;13.30;;;;;;;22.49;59.27;100703.47;5112031;28;20044;-59
2022/07/25 06:09:20;;;;;;;21.42;13.73;;;;;;;22.51;58.88;100710.31;5111757;28;20108;-60
2022/07/25 06:11:46;;;;;;;20.30;12.95;;;;;;;22.52;58.80;100714.75;5111928;28;20027;-59
2022/07/25 06:14:12;;;;;;;20.60;13.30;;;;;;;22.53;58.67;100724.84;5111540;28;20424;-59
2022/07/25 06:16:38;;;;;;;21.63;13.73;;;;;;;22.51;58.96;100721.59;5111630;28;20027;-60
2022/07/25 06:19:03;;;;;;;23.02;14.15;;;;;;;22.49;59.34;100724.00;5111404;28;20020;-61
2022/07/25 06:21:29;;;;;;;22.00;14.10;;;;;;;22.49;59.49;100723.19;5111722;28;20049;-60
2022/07/25 06:23:54;;;;;;;20.60;13.60;;;;;;;22.50;59.49;100719.97;5111503;28;20482;-60
2022/07/25 06:26:20;;;;;;;21.92;14.13;;;;;;;22.48;59.84;100716.75;5109715;28;20153;-59
2022/07/25 06:28:45;;;;;;;22.08;13.98;;;;;;;22.40;59.91;100718.72;5110836;28;20106;-59
2022/07/25 06:31:10;;;;;;;21.50;13.93;;;;;;;22.39;59.98;100721.88;5111792;28;20040;-60
2022/07/25 06:33:36;;;;;;;22.30;14.02;;;;;;;22.36;60.24;100720.66;5111737;28;20019;-59
2022/07/25 06:36:03;;;;;;;24.30;14.32;;;;;;;22.32;60.48;100733.09;5111415;28;20027;-59
2022/07/25 06:38:29;;;;;;;23.02;13.50;;;;;;;22.34;60.63;100723.03;5111710;28;20099;-59
2022/07/25 06:40:54;;;;;;;21.42;13.68;;;;;;;22.34;60.22;100717.41;5111689;28;20467;-59
2022/07/25 06:43:19;;;;;;;22.50;13.65;;;;;;;22.38;60.25;100732.34;5110042;28;20039;-59
2022/07/25 06:45:46;;;;;;;22.40;14.07;;;;;;;22.42;59.75;100727.59;5111007;28;20454;-60
2022/07/25 06:48:15;;;;;;;22.05;13.18;;;;;;;22.50;59.44;100736.09;5111360;28;20020;-59
2022/07/25 06:50:41;;;;;;;22.23;14.18;;;;;;;22.52;59.80;100725.25;5111147;28;20126;-59
2022/07/25 06:53:06;;;;;;;22.05;13.07;;;;;;;22.57;59.58;100724.84;5111285;28;20114;-59
2022/07/25 06:55:32;;;;;;;21.70;13.18;;;;;;;22.58;59.57;100716.00;5111046;28;20110;-60
2022/07/25 06:57:57;;;;;;;21.20;13.20;;;;;;;22.68;58.97;100727.75;5111029;28;20087;-59
2022/07/25 07:00:22;;;;;;;21.13;13.38;;;;;;;22.68;58.98;100734.22;5111156;28;20028;-59
2022/07/25 07:03:00;;;;;;;20.35;12.90;;;;;;;22.63;58.86;100731.75;5111344;28;20027;-60
2022/07/25 07:05:28;;;;;;;21.27;12.63;;;;;;;22.62;59.07;100727.31;5111489;28;20051;-60
2022/07/25 07:07:53;;;;;;;22.20;12.77;;;;;;;22.60;59.10;100724.09;5111243;28;20080;-60
2022/07/25 07:10:20;;;;;;;21.45;12.20;;;;;;;22.57;59.51;100722.03;5111212;28;20043;-60
2022/07/25 07:12:46;;;;;;;20.08;11.75;;;;;;;22.57;58.91;100727.69;5109504;28;20050;-59
2022/07/25 07:15:12;;;;;;;21.52;11.57;;;;;;;22.58;59.14;100718.03;5111279;28;20458;-61
2022/07/25 07:17:38;;;;;;;21.38;11.68;;;;;;;22.59;59.12;100722.47;5111474;28;20309;-60
2022/07/25 07:20:05;;;;;;;20.98;11.77;;;;;;;22.62;58.81;100729.31;5111255;28;20028;-59
2022/07/25 07:22:30;;;;;;;20.13;12.05;;;;;;;22.62;58.86;100721.69;5110460;28;20024;-59
2022/07/25 07:24:55;;;;;;;19.35;11.02;;;;;;;22.68;58.55;100720.09;5110652;28;20359;-60
2022/07/25 07:27:23;;;;;;;20.80;12.00;;;;;;;22.74;58.83;100721.34;5110723;28;20419;-60
2022/07/25 07:29:48;;;;;;;19.33;11.40;;;;;;;22.91;58.70;100730.28;5110834;28;20087;-60
2022/07/25 07:32:14;;;;;;;18.48;11.23;;;;;;;23.02;58.35;100725.53;5110501;28;20460;-59
2022/07/25 07:34:39;;;;;;;18.55;10.55;;;;;;;23.09;57.72;100721.94;5108985;28;20425;-60
2022/07/25 07:37:05;;;;;;;16.92;9.80;;;;;;;23.12;57.25;100731.63;5110477;28;20051;-59
2022/07/25 07:39:30;;;;;;;18.38;10.23;;;;;;;23.10;57.25;100732.03;5111634;28;20408;-59
2022/07/25 07:41:55;;;;;;;17.77;9.55;;;;;;;23.15;57.95;100728.81;5114712;28;20093;-60
2022/07/25 07:44:21;;;;;;;19.38;9.32;;;;;;;23.27;57.54;100733.34;5114386;28;20098;-60
2022/07/25 07:46:46;;;;;;;17.48;9.60;;;;;;;23.33;57.58;100737.41;5114851;28;20028;-60
2022/07/25 07:49:11;;;;;;;18.67;9.30;;;;;;;23.31;57.14;100739.00;5113123;28;20019;-60
2022/07/25 07:51:37;;;;;;;17.85;9.27;;;;;;;23.27;57.61;100735.34;5114593;28;20089;-58
2022/07/25 07:56:46;;;;;;;18.67;9.27;;;;;;;23.21;58.05;100737.75;5114168;28;20047;-58
2022/07/25 07:59:11;;;;;;;19.42;9.52;;;;;;;23.30;57.92;100741.00;5112316;28;20028;-58
2022/07/25 08:01:37;;;;;;;17.35;9.27;;;;;;;23.46;58.14;100737.84;5114092;28;20127;-59
2022/07/25 08:04:02;;;;;;;16.48;8.90;;;;;;;23.72;57.49;100746.41;5114083;28;20313;-59
2022/07/25 08:06:28;;;;;;;16.98;9.18;;;;;;;23.91;56.98;100753.69;5114005;28;20035;-60
2022/07/25 08:08:53;;;;;;;15.48;8.55;;;;;;;23.96;57.12;100742.03;5113656;28;20092;-59
2022/07/25 08:11:18;;;;;;;16.95;9.07;;;;;;;24.03;56.65;100733.56;5113831;28;20035;-59
2022/07/25 08:13:44;;;;;;;18.30;9.10;;;;;;;24.04;56.90;100738.00;5113764;28;20169;-59
2022/07/25 08:16:10;;;;;;;17.77;8.65;;;;;;;24.05;57.16;100741.63;5111969;28;20039;-60
2022/07/25 08:18:36;;;;;;;13.15;8.20;;;;;;;24.12;57.35;100736.81;5113747;28;20031;-59
2022/07/25 08:21:04;;;;;;;14.30;7.85;;;;;;;24.09;57.87;100748.09;5113432;28;20031;-59
2022/07/25 08:23:33;;;;;;;12.38;7.75;;;;;;;24.09;57.85;100731.94;5113693;28;20490;-59
2022/07/25 08:25:59;;;;;;;15.60;7.70;;;;;;;24.16;58.47;100733.19;5114087;28;20031;-59
2022/07/25 08:28:25;;;;;;;16.23;8.02;;;;;;;24.12;58.40;100744.47;5113794;28;20024;-58
2022/07/25 08:30:50;;;;;;;15.68;8.63;;;;;;;24.28;58.33;100738.41;5113618;28;20039;-59
2022/07/25 08:33:16;;;;;;;16.70;8.40;;;;;;;24.44;57.95;100738.00;5113335;28;20115;-58
2022/07/25 08:35:47;;;;;;;16.40;8.48;;;;;;;24.49;57.38;100745.28;5113062;28;20024;-59
2022/07/25 08:38:12;;;;;;;15.02;8.30;;;;;;;24.43;57.60;100750.53;5113228;28;20024;-60
2022/07/25 08:40:38;;;;;;;11.80;7.68;;;;;;;24.29;57.86;100754.16;5112648;28;20101;-59
2022/07/25 08:43:04;;;;;;;12.68;7.80;;;;;;;24.30;58.08;100758.59;5113254;28;20108;-59
2022/07/25 08:45:31;;;;;;;13.25;7.88;;;;;;;24.30;58.24;100750.94;5111776;28;20532;-59
2022/07/25 08:47:56;;;;;;;13.85;7.97;;;;;;;24.35;58.66;100744.09;5113139;28;20443;-59
2022/07/25 08:50:27;;;;;;;12.40;7.57;;;;;;;24.60;58.89;100746.91;5112677;28;20023;-58
2022/07/25 08:52:53;;;;;;;14.85;7.78;;;;;;;24.98;56.97;100757.75;5113056;28;20454;-59
2022/07/25 08:55:21;;;;;;;14.68;7.72;;;;;;;25.15;57.11;100752.44;5113024;28;20055;-59
2022/07/25 08:57:49;;;;;;;12.35;7.40;;;;;;;25.38;56.20;100744.28;5113074;28;20027;-59
2022/07/25 09:00:17;;;;;;;15.05;7.88;;;;;;;25.47;55.79;100757.22;5113115;28;20028;-59
2022/07/25 09:02:42;;;;;;;14.50;8.35;;;;;;;25.38;56.75;100741.44;5112682;28;20047;-60
2022/07/25 09:05:08;;;;;;;11.65;7.35;;;;;;;25.38;55.95;100743.47;5112367;28;20475;-60
2022/07/25 09:07:36;;;;;;;14.40;7.60;;;;;;;25.38;56.50;100746.28;5112133;28;20031;-58
2022/07/25 09:10:19;;;;;;;16.05;8.20;;;;;;;25.44;55.79;100753.19;5112751;28;20019;-58
2022/07/25 09:13:00;;;;;;;12.52;7.93;;;;;;;25.50;55.16;100753.56;5111196;28;20379;-58
2022/07/25 09:15:28;;;;;;;13.57;7.70;;;;;;;25.43;54.97;100765.72;5112592;28;20024;-58
2022/07/25 09:17:55;;;;;;;13.23;7.20;;;;;;;25.60;54.38;100757.56;5112897;28;20042;-59
2022/07/25 09:20:20;;;;;;;10.75;7.13;;;;;;;25.79;53.94;100748.53;5112867;28;20035;-58
2022/07/25 09:22:47;;;;;;;14.50;8.00;;;;;;;25.96;53.13;100755.31;5112196;27;20084;-60
2022/07/25 09:25:23;;;;;;;12.15;7.68;;;;;;;25.98;53.33;100752.06;5112000;28;20126;-59
2022/07/25 09:27:49;;;;;;;13.20;7.40;;;;;;;26.03;52.59;100765.78;5111904;28;20039;-59
2022/07/25 09:30:15;;;;;;;12.20;7.60;;;;;;;26.12;51.70;100768.19;5112127;28;20107;-59
2022/07/25 09:32:40;;;;;;;15.20;7.97;;;;;;;25.96;52.03;100763.81;5111922;28;20411;-64
2022/07/25 09:35:06;;;;;;;13.45;7.70;;;;;;;26.06;52.68;100769.84;5111701;28;20111;-59
2022/07/25 09:37:31;;;;;;;14.77;8.40;;;;;;;26.23;52.67;100768.91;5111890;28;20037;-59
2022/07/25 09:39:56;;;;;;;13.30;7.80;;;;;;;26.30;52.66;100768.06;5111515;28;20189;-59
2022/07/25 09:42:31;;;;;;;13.20;7.72;;;;;;;26.08;52.52;100776.69;5111468;28;20034;-58
2022/07/25 09:45:13;;;;;;;14.75;8.10;;;;;;;25.96;52.74;100783.66;5111754;28;20424;-58
2022/07/25 09:47:52;;;;;;;14.23;8.38;;;;;;;25.92;52.63;100779.22;5111528;28;20127;-58
2022/07/25 09:50:19;;;;;;;14.20;8.38;;;;;;;25.75;52.17;100781.75;5110098;28;20460;-58
2022/07/25 09:52:45;;;;;;;14.40;8.40;;;;;;;25.82;51.87;100793.06;5109868;28;20111;-59
2022/07/25 09:55:13;;;;;;;13.73;8.48;;;;;;;25.80;52.02;100795.50;5109883;28;20051;-59
2022/07/25 09:57:38;;;;;;;15.07;8.20;;;;;;;26.02;53.18;100792.53;5111522;28;20108;-59
2022/07/25 10:00:06;;;;;;;14.52;7.93;;;;;;;26.21;51.45;100788.38;5111407;28;20028;-60
2022/07/25 10:02:51;;;;;;;14.70;7.78;;;;;;;26.41;51.45;100791.44;5110916;28;20088;-60
2022/07/25 10:05:35;;;;;;;14.73;7.90;;;;;;;26.41;50.89;100788.63;5111575;28;20031;-59
2022/07/25 10:08:05;;;;;;;14.88;7.80;;;;;;;26.47;50.71;100795.47;5111779;27;20119;-59
2022/07/25 10:10:36;;;;;;;14.30;7.97;;;;;;;26.47;49.26;100798.31;5112164;28;20023;-59
2022/07/25 10:13:09;;;;;;;15.77;7.90;;;;;;;26.46;48.69;100796.69;5111304;28;20125;-60
2022/07/25 10:15:46;;;;;;;15.50;7.90;;;;;;;26.57;49.23;100802.25;5111552;28;20494;-59
2022/07/25 10:18:13;;;;;;;14.35;7.90;;;;;;;26.57;49.28;100799.44;5111389;28;20180;-59
2022/07/25 10:20:39;;;;;;;14.70;8.20;;;;;;;26.55;48.81;100793.34;5111218;28;20043;-59
2022/07/25 10:23:25;;;;;;;14.65;8.27;;;;;;;26.53;49.59;100798.66;5111435;28;20355;-60
2022/07/25 10:26:08;;;;;;;18.05;8.00;;;;;;;26.65;50.51;100808.69;5109443;28;20378;-59
2022/07/25 10:28:43;;;;;;;17.08;8.60;;;;;;;26.80;50.28;100791.53;5110963;28;20431;-59
2022/07/25 10:31:20;;;;;;;15.93;8.30;;;;;;;27.05;48.82;100797.78;5111474;28;20032;-59
2022/07/25 10:33:58;;;;;;;16.77;8.38;;;;;;;27.23;48.70;100786.22;5111103;28;20015;-59
2022/07/25 10:36:28;;;;;;;13.23;8.23;;;;;;;27.24;47.73;100799.19;5111073;28;20019;-59
2022/07/25 10:38:59;;;;;;;15.00;8.20;;;;;;;27.01;46.88;100784.88;5111240;28;20027;-59
2022/07/25 10:41:27;;;;;;;16.10;8.10;;;;;;;27.07;46.35;100797.38;5110487;28;20047;-60
2022/07/25 10:43:56;;;;;;;14.48;8.20;;;;;;;26.98;46.28;100799.91;5110569;28;20051;-59
2022/07/25 10:46:26;;;;;;;13.20;7.88;;;;;;;27.01;46.07;100804.75;5110971;28;20169;-60
2022/07/25 10:49:04;;;;;;;15.18;8.00;;;;;;;27.22;46.09;100806.53;5111059;28;20061;-59
2022/07/25 10:51:34;;;;;;;19.23;10.77;;;;;;;27.44;45.34;100798.59;5110271;28;20348;-60
2022/07/25 10:54:11;;;;;;;14.20;8.07;;;;;;;27.59;44.63;100804.91;5110580;28;20028;-59
2022/07/25 10:56:36;;;;;;;15.13;7.80;;;;;;;27.41;44.16;100805.06;5108705;28;20358;-59
2022/07/25 10:59:02;;;;;;;13.25;7.50;;;;;;;27.33;44.41;100812.91;5110424;28;20024;-60
2022/07/25 11:01:33;;;;;;;14.05;7.85;;;;;;;27.30;44.13;100822.25;5110443;28;20352;-60
2022/07/25 11:04:04;;;;;;;16.85;8.85;;;;;;;27.32;44.38;100819.81;5110408;28;20031;-60
2022/07/25 11:06:39;;;;;;;12.68;8.00;;;;;;;27.58;44.79;100830.91;5110381;28;20050;-60
2022/07/25 11:09:19;;;;;;;15.75;8.50;;;;;;;27.55;44.41;100824.00;5109119;28;20134;-59
2022/07/25 11:11:49;;;;;;;17.15;8.52;;;;;;;27.47;44.96;100829.00;5110546;28;20090;-60